Time;durP1;ratioP1;P1;durP2;ratioP2;P2;SDS_P1;SDS_P2;PMS_P1;PMS_P2;Temp;Humidity;BMP_temperature;BMP_pressure;BME280_temperature;BME280_humidity;BME280_pressure;Samples;Min_cycle;Max_cycle;Signal;HPM_P1;HPM_P2
2022/09/11 00:00:43;;;;;;;;;;;;;;;14.63;93.71;98342.64;1721424;82;20135;-69
2022/09/11 00:03:09;;;;;;;;;;;;;;;14.61;93.63;98350.08;1721276;82;20169;-68
2022/09/11 00:05:38;;;;;;;;;;;;;;;14.58;93.40;98353.20;1723617;82;21139;-69
2022/09/11 00:08:08;;;;;;;;;;;;;;;14.60;93.49;98356.50;1720220;82;20121;-68
2022/09/11 00:10:39;;;;;;;;;;;;;;;14.34;94.94;98363.46;1723335;82;20145;-68
2022/09/11 00:13:03;;;;;;;;;;;;;;;14.27;95.47;98372.84;1719303;82;20139;-69
2022/09/11 00:15:30;;;;;;;;;;;;;;;14.27;95.48;98381.38;1722761;82;20127;-68
2022/09/11 00:17:56;;;;;;;;;;;;;;;14.21;95.74;98384.41;1674678;83;21262;-69
2022/09/11 00:20:23;;;;;;;;;;;;;;;14.17;96.00;98386.72;1707515;83;20439;-68
2022/09/11 00:22:49;;;;;;;;;;;;;;;14.16;96.24;98394.44;1721194;82;20120;-68
2022/09/11 00:25:16;;;;;;;;;;;;;;;14.09;96.60;98391.52;1724131;82;20095;-68
2022/09/11 00:27:42;;;;;;;;;;;;;;;14.12;96.81;98396.44;1719421;82;20093;-68
2022/09/11 00:30:09;;;;;;;;;;;;;;;14.04;96.93;98394.03;1722323;82;21222;-69
2022/09/11 00:32:36;;;;;;;;;;;;;;;14.01;97.15;98397.96;1716919;82;20099;-68
2022/09/11 00:35:03;;;;;;;;;;;;;;;13.99;97.56;98384.51;1720934;82;20102;-67
2022/09/11 00:37:29;;;;;;;;;;;;;;;14.02;97.52;98378.22;1718834;82;20214;-68
2022/09/11 00:39:56;;;;;;;;;;;;;;;14.01;97.43;98373.07;1724786;82;20116;-68
2022/09/11 00:42:22;;;;;;;;;;;;;;;13.98;97.52;98382.34;1718058;82;21244;-69
2022/09/11 00:44:52;;;;;;;;;;;;;;;14.00;97.48;98379.47;1722006;82;20143;-68
2022/09/11 00:47:19;;;;;;;;;;;;;;;14.01;97.45;98382.43;1722484;82;20086;-68
2022/09/11 00:49:50;;;;;;;;;;;;;;;13.98;97.58;98385.02;1724521;82;20103;-68
2022/09/11 00:52:28;;;;;;;;;;;;;;;13.97;97.73;98378.05;1699088;83;20513;-69
2022/09/11 00:54:58;;;;;;;;;;;;;;;14.00;97.87;98380.27;1694900;83;21152;-68
2022/09/11 00:57:28;;;;;;;;;;;;;;;14.02;97.64;98368.03;1696614;83;20091;-68
2022/09/11 00:59:54;;;;;;;;;;;;;;;14.00;97.77;98362.09;1696674;83;20456;-69
2022/09/11 01:02:21;;;;;;;;;;;;;;;14.01;97.70;98359.70;1718716;82;21217;-69
2022/09/11 01:04:49;;;;;;;;;;;;;;;13.99;97.71;98361.78;1722666;82;20433;-69
2022/09/11 01:07:15;;;;;;;;;;;;;;;13.98;97.66;98365.48;1721887;82;21242;-69
2022/09/11 01:09:43;;;;;;;;;;;;;;;13.95;97.65;98369.92;1722783;82;20091;-68
2022/09/11 01:12:17;;;;;;;;;;;;;;;13.98;97.71;98374.84;1720583;82;20123;-69
2022/09/11 01:14:56;;;;;;;;;;;;;;;14.02;97.61;98368.86;1712355;82;20143;-68
2022/09/11 01:17:28;;;;;;;;;;;;;;;13.99;97.67;98365.28;1722714;82;20128;-67
2022/09/11 01:20:15;;;;;;;;;;;;;;;13.94;97.88;98366.45;1719664;82;21132;-68
2022/09/11 01:23:06;;;;;;;;;;;;;;;13.96;98.06;98366.23;1720086;82;20119;-67
2022/09/11 01:25:42;;;;;;;;;;;;;;;13.96;98.06;98358.20;1722377;82;20095;-68
2022/09/11 01:28:18;;;;;;;;;;;;;;;13.99;97.96;98360.45;1725069;82;20132;-69
2022/09/11 01:30:46;;;;;;;;;;;;;;;14.01;97.83;98358.36;1717731;82;20091;-67
2022/09/11 01:33:21;;;;;;;;;;;;;;;14.00;97.87;98356.20;1719933;82;21257;-68
2022/09/11 01:35:51;;;;;;;;;;;;;;;13.98;98.00;98349.44;1694654;83;20173;-68
2022/09/11 01:38:23;;;;;;;;;;;;;;;13.97;98.06;98350.50;1722319;82;20250;-66
2022/09/11 01:40:56;;;;;;;;;;;;;;;13.99;97.98;98353.77;1720009;83;20162;-67
2022/09/11 01:43:29;;;;;;;;;;;;;;;14.00;98.09;98358.08;1717643;82;20211;-66
2022/09/11 01:45:57;;;;;;;;;;;;;;;14.01;97.88;98350.34;1718262;82;21088;-68
2022/09/11 01:48:39;;;;;;;;;;;;;;;14.01;97.91;98347.67;1722590;82;20196;-67
2022/09/11 01:51:05;;;;;;;;;;;;;;;14.03;97.93;98346.92;1717965;82;20437;-68
2022/09/11 01:53:33;;;;;;;;;;;;;;;14.04;97.74;98344.56;1710996;82;20811;-67
2022/09/11 01:56:02;;;;;;;;;;;;;;;14.08;97.67;98352.43;1714037;82;20162;-68
2022/09/11 01:58:30;;;;;;;;;;;;;;;14.07;97.60;98348.14;1713855;82;21852;-68
2022/09/11 02:01:06;;;;;;;;;;;;;;;14.07;97.76;98356.98;1719779;82;20083;-68
2022/09/11 02:03:37;;;;;;;;;;;;;;;14.06;97.89;98359.86;1713201;82;20413;-67
2022/09/11 02:06:08;;;;;;;;;;;;;;;14.04;98.13;98349.91;1691748;83;20076;-69
2022/09/11 02:08:57;;;;;;;;;;;;;;;14.04;98.24;98351.25;1718164;82;20147;-66
2022/09/11 02:11:23;;;;;;;;;;;;;;;14.09;98.24;98351.41;1701009;82;21791;-69
2022/09/11 02:13:53;;;;;;;;;;;;;;;14.07;98.23;98357.50;1694980;84;20518;-68
2022/09/11 02:16:34;;;;;;;;;;;;;;;14.07;98.50;98357.50;1696261;83;20103;-68
2022/09/11 02:19:06;;;;;;;;;;;;;;;14.11;98.35;98349.32;1695846;83;20500;-67
2022/09/11 02:21:33;;;;;;;;;;;;;;;14.13;98.33;98355.30;1709700;82;20099;-67
2022/09/11 02:24:00;;;;;;;;;;;;;;;14.09;98.27;98358.91;1689120;83;21469;-67
2022/09/11 02:26:29;;;;;;;;;;;;;;;14.11;98.33;98355.49;1717668;82;20477;-67
2022/09/11 02:28:55;;;;;;;;;;;;;;;14.14;98.26;98353.72;1690346;83;20194;-68
2022/09/11 02:31:22;;;;;;;;;;;;;;;14.21;98.18;98353.65;1689101;82;20105;-68
2022/09/11 02:33:49;;;;;;;;;;;;;;;14.20;98.13;98356.86;1690425;83;20103;-68
2022/09/11 02:36:34;;;;;;;;;;;;;;;14.19;98.10;98356.55;1716412;82;21246;-68
2022/09/11 02:39:10;;;;;;;;;;;;;;;14.21;97.88;98360.33;1688959;83;20095;-69
2022/09/11 02:41:56;;;;;;;;;;;;;;;14.22;97.83;98358.80;1714447;82;20171;-68
2022/09/11 02:44:46;;;;;;;;;;;;;;;14.22;97.85;98372.17;1687428;83;20116;-68
2022/09/11 02:47:16;;;;;;;;;;;;;;;14.21;97.84;98359.82;1713959;82;20457;-69
2022/09/11 02:49:56;;;;;;;;;;;;;;;14.22;97.89;98361.98;1690675;83;21102;-71
2022/09/11 02:52:49;;;;;;;;;;;;;;;14.17;98.00;98357.81;1711548;82;20071;-68
2022/09/11 02:55:24;;;;;;;;;;;;;;;14.19;98.09;98363.75;1712953;82;20421;-69
2022/09/11 02:58:03;;;;;;;;;;;;;;;14.20;97.96;98356.05;1715710;82;20471;-68
2022/09/11 03:00:30;;;;;;;;;;;;;;;14.23;97.79;98364.97;1717207;82;20115;-68
2022/09/11 03:02:56;;;;;;;;;;;;;;;14.23;97.58;98365.77;1716339;82;21092;-69
2022/09/11 03:05:23;;;;;;;;;;;;;;;14.26;97.48;98379.22;1718468;82;20099;-69
2022/09/11 03:07:49;;;;;;;;;;;;;;;14.24;97.52;98367.92;1716688;82;20294;-68
2022/09/11 03:10:15;;;;;;;;;;;;;;;14.24;97.60;98364.73;1714327;83;20192;-68
2022/09/11 03:12:41;;;;;;;;;;;;;;;14.23;97.63;98375.67;1718178;82;20093;-69
2022/09/11 03:15:11;;;;;;;;;;;;;;;14.21;97.67;98377.72;1714771;82;21149;-69
2022/09/11 03:17:37;;;;;;;;;;;;;;;14.19;97.96;98377.13;1717071;82;20099;-68
2022/09/11 03:20:07;;;;;;;;;;;;;;;14.16;98.16;98380.23;1717917;82;20210;-68
2022/09/11 03:22:33;;;;;;;;;;;;;;;14.12;98.30;98371.86;1716767;82;20875;-68
2022/09/11 03:25:00;;;;;;;;;;;;;;;14.15;98.40;98378.11;1715908;82;20449;-68
2022/09/11 03:27:27;;;;;;;;;;;;;;;14.17;98.31;98376.02;1716513;82;21145;-67
2022/09/11 03:29:55;;;;;;;;;;;;;;;14.20;98.33;98372.91;1717589;82;20099;-68
2022/09/11 03:32:23;;;;;;;;;;;;;;;14.23;98.33;98377.01;1714252;82;20418;-69
2022/09/11 03:34:50;;;;;;;;;;;;;;;14.29;98.22;98368.08;1719059;82;20180;-68
2022/09/11 03:37:17;;;;;;;;;;;;;;;14.28;98.04;98362.45;1717247;82;20099;-68
2022/09/11 03:39:44;;;;;;;;;;;;;;;14.29;98.08;98369.41;1712258;82;21262;-67
2022/09/11 03:42:11;;;;;;;;;;;;;;;14.28;97.95;98365.13;1713747;82;20122;-68
2022/09/11 03:44:38;;;;;;;;;;;;;;;14.24;98.10;98365.25;1716698;82;20099;-69
2022/09/11 03:47:05;;;;;;;;;;;;;;;14.28;98.07;98369.65;1716817;82;20157;-69
2022/09/11 03:49:31;;;;;;;;;;;;;;;14.32;97.81;98371.69;1713958;82;20485;-68
2022/09/11 03:51:58;;;;;;;;;;;;;;;14.29;97.80;98368.63;1717253;82;21146;-68
2022/09/11 03:54:24;;;;;;;;;;;;;;;14.30;97.88;98372.91;1718473;82;20099;-68
2022/09/11 03:56:51;;;;;;;;;;;;;;;14.30;97.72;98363.55;1716281;82;20178;-68
2022/09/11 03:59:18;;;;;;;;;;;;;;;14.27;97.85;98367.48;1718167;82;20115;-69
2022/09/11 04:01:45;;;;;;;;;;;;;;;14.25;97.99;98361.55;1716718;82;20107;-68
2022/09/11 04:04:11;;;;;;;;;;;;;;;14.26;97.96;98359.16;1712133;82;21138;-69
2022/09/11 04:06:41;;;;;;;;;;;;;;;14.26;98.06;98360.48;1709837;82;20091;-69
2022/09/11 04:09:07;;;;;;;;;;;;;;;14.26;98.06;98356.48;1719736;82;20127;-68
2022/09/11 04:11:37;;;;;;;;;;;;;;;14.24;98.11;98358.56;1714118;82;20150;-69
2022/09/11 04:14:04;;;;;;;;;;;;;;;14.26;98.29;98355.14;1714522;82;20462;-69
2022/09/11 04:16:34;;;;;;;;;;;;;;;14.26;98.33;98353.02;1691878;83;21215;-69
2022/09/11 04:19:01;;;;;;;;;;;;;;;14.26;98.41;98350.33;1713879;83;20559;-68
2022/09/11 04:21:27;;;;;;;;;;;;;;;14.29;98.50;98352.03;1693055;83;20432;-69
2022/09/11 04:23:55;;;;;;;;;;;;;;;14.33;98.51;98354.61;1716540;82;20118;-69
2022/09/11 04:26:23;;;;;;;;;;;;;;;14.37;98.39;98354.45;1694486;83;20427;-68
2022/09/11 04:28:52;;;;;;;;;;;;;;;14.39;98.29;98356.92;1718744;82;21179;-68
2022/09/11 04:31:18;;;;;;;;;;;;;;;14.39;98.44;98356.38;1690432;83;20253;-69
2022/09/11 04:33:46;;;;;;;;;;;;;;;14.44;98.35;98348.53;1717687;82;20088;-68
2022/09/11 04:36:20;;;;;;;;;;;;;;;14.42;98.55;98351.92;1689978;83;20144;-68
2022/09/11 04:38:43;;;;;;;;;;;;;;;14.42;98.47;98351.10;1712754;82;20107;-68
2022/09/11 04:41:12;;;;;;;;;;;;;;;14.46;98.61;98350.97;1690179;83;21290;-68
2022/09/11 04:43:40;;;;;;;;;;;;;;;14.51;98.45;98351.12;1718344;82;20139;-68
2022/09/11 04:46:09;;;;;;;;;;;;;;;14.71;98.46;98345.02;1693505;83;20095;-68
2022/09/11 04:48:44;;;;;;;;;;;;;;;15.16;95.20;98344.98;1686757;83;20146;-68
2022/09/11 04:51:11;;;;;;;;;;;;;;;15.26;94.70;98347.11;1662840;83;20454;-68
2022/09/11 04:53:37;;;;;;;;;;;;;;;15.30;94.57;98348.30;1718780;82;21057;-68
2022/09/11 04:56:06;;;;;;;;;;;;;;;15.31;94.50;98349.41;1692901;83;20103;-68
2022/09/11 04:58:34;;;;;;;;;;;;;;;15.42;95.01;98348.64;1714045;82;20119;-67
2022/09/11 05:01:05;;;;;;;;;;;;;;;15.78;95.69;98345.02;1691035;83;20151;-68
2022/09/11 05:03:31;;;;;;;;;;;;;;;15.95;94.99;98346.00;1711719;82;20422;-69
2022/09/11 05:05:58;;;;;;;;;;;;;;;15.99;94.38;98349.02;1692349;83;21281;-68
2022/09/11 05:08:25;;;;;;;;;;;;;;;15.99;94.00;98348.49;1716586;82;20547;-68
2022/09/11 05:10:52;;;;;;;;;;;;;;;15.98;93.69;98346.84;1714062;82;20091;-68
2022/09/11 05:13:20;;;;;;;;;;;;;;;16.02;93.63;98344.02;1715042;82;20158;-69
2022/09/11 05:15:47;;;;;;;;;;;;;;;16.03;93.85;98349.65;1715050;82;20443;-68
2022/09/11 05:18:14;;;;;;;;;;;;;;;16.04;93.95;98345.93;1689996;82;21277;-69
2022/09/11 05:20:40;;;;;;;;;;;;;;;16.00;94.97;98346.12;1714178;82;20166;-70
2022/09/11 05:23:07;;;;;;;;;;;;;;;15.99;95.14;98344.98;1718353;82;20083;-66
2022/09/11 05:25:35;;;;;;;;;;;;;;;16.05;95.48;98347.58;1718050;82;20071;-68
2022/09/11 05:28:04;;;;;;;;;;;;;;;16.20;95.78;98344.42;1715572;82;20087;-67
2022/09/11 05:30:31;;;;;;;;;;;;;;;16.34;95.25;98343.14;1710832;82;21161;-69
2022/09/11 05:32:57;;;;;;;;;;;;;;;16.45;95.15;98344.98;1714189;82;20143;-68
2022/09/11 05:35:23;;;;;;;;;;;;;;;16.64;95.26;98342.49;1714967;82;20095;-68
2022/09/11 05:37:50;;;;;;;;;;;;;;;17.56;97.42;98329.81;1716824;82;20198;-68
2022/09/11 05:40:16;;;;;;;;;;;;;;;19.03;97.40;98324.73;1717491;82;20099;-68
2022/09/11 05:42:43;;;;;;;;;;;;;;;20.74;94.84;98317.27;1712230;83;21247;-68
2022/09/11 05:45:10;;;;;;;;;;;;;;;22.40;92.25;98308.61;1719131;82;20182;-68
2022/09/11 05:47:38;;;;;;;;;;;;;;;23.86;90.00;98312.81;1716794;82;20095;-68
2022/09/11 05:50:06;;;;;;;;;;;;;;;24.98;88.35;98311.99;1717445;82;20089;-68
2022/09/11 05:52:33;;;;;;;;;;;;;;;26.02;87.14;98318.13;1712534;81;20136;-68
2022/09/11 05:55:00;;;;;;;;;;;;;;;26.26;85.73;98316.66;1717523;82;21873;-67
2022/09/11 05:57:28;;;;;;;;;;;;;;;26.03;85.88;98318.94;1699074;83;20091;-69
2022/09/11 05:59:55;;;;;;;;;;;;;;;25.86;86.56;98317.33;1720752;82;20083;-68
2022/09/11 06:02:21;;;;;;;;;;;;;;;25.89;86.92;98324.91;1720508;82;20168;-69
2022/09/11 06:04:49;;;;;;;;;;;;;;;25.50;86.34;98319.75;1699858;83;20164;-69
2022/09/11 06:07:17;;;;;;;;;;;;;;;25.21;87.71;98318.52;1718604;82;21219;-69
2022/09/11 06:09:45;;;;;;;;;;;;;;;25.18;87.22;98319.10;1695606;83;20421;-68
2022/09/11 06:12:11;;;;;;;;;;;;;;;26.00;87.15;98309.98;1719577;82;20424;-68
2022/09/11 06:14:39;;;;;;;;;;;;;;;26.58;84.66;98307.08;1722136;82;20083;-68
2022/09/11 06:17:05;;;;;;;;;;;;;;;26.79;83.26;98304.78;1699129;83;20142;-67
2022/09/11 06:19:33;;;;;;;;;;;;;;;26.86;82.97;98297.81;1718471;82;21267;-69
2022/09/11 06:22:00;;;;;;;;;;;;;;;26.58;82.55;98300.80;1720334;82;20241;-69
2022/09/11 06:24:29;;;;;;;;;;;;;;;26.12;83.08;98300.81;1696799;83;20191;-70
2022/09/11 06:26:56;;;;;;;;;;;;;;;25.32;82.66;98301.47;1718237;83;20234;-70
2022/09/11 06:29:22;;;;;;;;;;;;;;;24.27;83.94;98316.01;1721563;82;20429;-70
2022/09/11 06:31:50;;;;;;;;;;;;;;;23.35;84.47;98310.98;1700430;83;21158;-68
2022/09/11 06:34:18;;;;;;;;;;;;;;;22.61;85.56;98310.19;1717095;82;20087;-68
2022/09/11 06:36:45;;;;;;;;;;;;;;;22.04;86.42;98308.67;1719942;82;20119;-71
2022/09/11 06:39:11;;;;;;;;;;;;;;;21.63;87.28;98317.02;1700869;83;20146;-71
2022/09/11 06:41:38;;;;;;;;;;;;;;;21.62;85.95;98309.44;1722078;82;20134;-69
2022/09/11 06:44:09;;;;;;;;;;;;;;;21.58;86.79;98307.55;1717320;82;21486;-69
2022/09/11 06:46:39;;;;;;;;;;;;;;;21.77;86.85;98306.73;1720036;82;20391;-70
2022/09/11 06:49:06;;;;;;;;;;;;;;;22.03;86.34;98310.31;1695036;84;20154;-69
2022/09/11 06:51:35;;;;;;;;;;;;;;;21.99;85.28;98307.33;1716721;82;20196;-68
2022/09/11 06:54:02;;;;;;;;;;;;;;;22.33;85.79;98304.84;1716005;82;20137;-68
2022/09/11 06:56:34;;;;;;;;;;;;;;;23.75;85.20;98294.19;1715592;82;21166;-69
2022/09/11 06:59:00;;;;;;;;;;;;;;;25.99;81.85;98286.05;1716900;82;20524;-69
2022/09/11 07:01:27;;;;;;;;;;;;;;;27.65;79.40;98280.53;1714647;83;20111;-69
2022/09/11 07:03:55;;;;;;;;;;;;;;;29.28;77.19;98272.58;1715237;82;20094;-69
2022/09/11 07:06:25;;;;;;;;;;;;;;;30.75;74.44;98262.19;1687901;83;20096;-68
2022/09/11 07:08:53;;;;;;;;;;;;;;;31.79;71.90;98261.17;1714923;82;22063;-68
2022/09/11 07:11:21;;;;;;;;;;;;;;;32.65;70.87;98258.34;1684148;83;20091;-70
2022/09/11 07:13:48;;;;;;;;;;;;;;;33.35;68.84;98259.78;1689136;83;20208;-69
2022/09/11 07:16:15;;;;;;;;;;;;;;;33.95;68.36;98256.03;1689143;83;20148;-70
2022/09/11 07:18:43;;;;;;;;;;;;;;;33.69;69.85;98266.72;1717995;82;20085;-70
2022/09/11 07:21:22;;;;;;;;;;;;;;;33.28;70.52;98266.47;1717777;82;21257;-68
2022/09/11 07:23:53;;;;;;;;;;;;;;;31.87;70.81;98269.11;1714025;82;20154;-69
2022/09/11 07:26:21;;;;;;;;;;;;;;;30.13;74.33;98267.40;1714405;82;20109;-69
2022/09/11 07:28:51;;;;;;;;;;;;;;;28.82;76.08;98285.17;1718070;82;20225;-70
2022/09/11 07:31:19;;;;;;;;;;;;;;;27.42;79.68;98281.62;1716426;82;20163;-70
2022/09/11 07:33:49;;;;;;;;;;;;;;;26.57;80.73;98283.63;1715761;82;21137;-70
2022/09/11 07:36:17;;;;;;;;;;;;;;;26.57;81.84;98276.81;1715798;82;20087;-69
2022/09/11 07:38:46;;;;;;;;;;;;;;;27.31;80.67;98276.11;1713961;82;20071;-69
2022/09/11 07:41:14;;;;;;;;;;;;;;;27.40;78.83;98276.45;1711192;82;20130;-68
2022/09/11 07:43:44;;;;;;;;;;;;;;;27.10;74.86;98283.12;1713813;82;20461;-71
2022/09/11 07:46:10;;;;;;;;;;;;;;;26.24;76.65;98279.35;1715054;82;21260;-72
2022/09/11 07:48:38;;;;;;;;;;;;;;;25.53;77.34;98277.78;1709850;82;20103;-71
2022/09/11 07:51:06;;;;;;;;;;;;;;;24.88;78.07;98272.69;1712782;82;20129;-72
2022/09/11 07:53:37;;;;;;;;;;;;;;;24.99;78.20;98276.90;1710521;82;20389;-71
2022/09/11 07:56:04;;;;;;;;;;;;;;;24.83;78.32;98271.39;1681329;84;20525;-69
2022/09/11 07:58:33;;;;;;;;;;;;;;;24.35;79.13;98277.34;1712108;82;21135;-69
2022/09/11 08:01:02;;;;;;;;;;;;;;;24.58;80.79;98274.39;1685534;83;20499;-70
2022/09/11 08:03:31;;;;;;;;;;;;;;;25.87;78.03;98270.70;1710929;82;20346;-69
2022/09/11 08:05:59;;;;;;;;;;;;;;;26.55;74.87;98257.77;1683689;83;20178;-70
2022/09/11 08:08:28;;;;;;;;;;;;;;;27.04;74.92;98265.27;1696517;83;20174;-72
2022/09/11 08:11:01;;;;;;;;;;;;;;;27.09;75.25;98260.48;1717899;82;21147;-70
2022/09/11 08:13:28;;;;;;;;;;;;;;;26.82;74.88;98256.44;1666385;84;20205;-70
2022/09/11 08:15:55;;;;;;;;;;;;;;;26.16;75.80;98252.79;1718267;82;20143;-70
2022/09/11 08:18:22;;;;;;;;;;;;;;;25.39;74.76;98259.20;1689765;83;20164;-69
2022/09/11 08:20:49;;;;;;;;;;;;;;;24.67;77.47;98267.74;1715576;82;20116;-71
2022/09/11 08:23:15;;;;;;;;;;;;;;;24.12;78.41;98259.64;1689034;83;21198;-70
2022/09/11 08:25:41;;;;;;;;;;;;;;;23.57;79.61;98271.23;1721087;82;20091;-68
2022/09/11 08:28:09;;;;;;;;;;;;;;;23.06;79.54;98261.23;1689848;83;20111;-67
2022/09/11 08:30:38;;;;;;;;;;;;;;;22.73;80.21;98257.88;1694349;83;20284;-67
2022/09/11 08:33:05;;;;;;;;;;;;;;;22.46;80.50;98256.85;1720250;82;20184;-67
2022/09/11 08:35:34;;;;;;;;;;;;;;;22.13;82.22;98255.56;1720282;83;21955;-67
2022/09/11 08:38:02;;;;;;;;;;;;;;;21.98;82.91;98265.61;1693032;83;20418;-67
2022/09/11 08:40:29;;;;;;;;;;;;;;;21.87;83.18;98255.90;1721464;82;20147;-67
2022/09/11 08:42:59;;;;;;;;;;;;;;;21.85;82.60;98261.53;1710429;82;20181;-67
2022/09/11 08:45:29;;;;;;;;;;;;;;;22.03;82.03;98258.30;1715686;82;20109;-67
2022/09/11 08:47:57;;;;;;;;;;;;;;;22.20;79.88;98255.83;1697414;83;20761;-67
2022/09/11 08:50:33;;;;;;;;;;;;;;;22.31;81.35;98252.84;1722890;82;20090;-67
2022/09/11 08:53:00;;;;;;;;;;;;;;;22.32;81.83;98257.16;1689425;83;20223;-67
2022/09/11 08:55:59;;;;;;;;;;;;;;;22.13;79.83;98257.48;1717276;82;20143;-67
2022/09/11 08:58:35;;;;;;;;;;;;;;;21.76;80.21;98267.77;1685489;83;20148;-68
2022/09/11 09:01:25;;;;;;;;;;;;;;;21.32;81.17;98268.30;1714698;82;21108;-68
2022/09/11 09:04:09;;;;;;;;;;;;;;;21.02;81.57;98277.64;1692338;83;20099;-67
2022/09/11 09:06:48;;;;;;;;;;;;;;;20.73;81.96;98274.56;1714403;82;20148;-67
2022/09/11 09:09:26;;;;;;;;;;;;;;;20.41;81.83;98276.59;1692646;83;20144;-67
2022/09/11 09:12:02;;;;;;;;;;;;;;;20.12;83.43;98278.83;1712478;82;20091;-67
2022/09/11 09:14:58;;;;;;;;;;;;;;;19.98;84.34;98272.23;1718673;82;21125;-68
2022/09/11 09:17:28;;;;;;;;;;;;;;;19.85;84.65;98281.30;1721478;83;20417;-67
2022/09/11 09:20:10;;;;;;;;;;;;;;;19.72;85.40;98277.16;1727481;82;20171;-68
2022/09/11 09:22:53;;;;;;;;;;;;;;;19.76;85.54;98275.59;1720606;82;20091;-68
2022/09/11 09:25:21;;;;;;;;;;;;;;;19.78;85.93;98273.98;1717260;82;20193;-67
2022/09/11 09:28:02;;;;;;;;;;;;;;;19.77;85.89;98274.50;1722439;82;40017;-67
2022/09/11 09:30:32;;;;;;;;;;;;;;;19.88;86.46;98272.17;1715960;82;20141;-68
2022/09/11 09:33:14;;;;;;;;;;;;;;;20.09;86.71;98276.64;1714936;82;20110;-68
2022/09/11 09:35:42;;;;;;;;;;;;;;;20.45;85.68;98278.22;1723961;82;20126;-68
2022/09/11 09:38:17;;;;;;;;;;;;;;;20.99;85.38;98263.30;1723162;82;20237;-68
2022/09/11 09:40:47;;;;;;;;;;;;;;;22.81;81.27;98245.10;1719596;82;21272;-68
2022/09/11 09:43:40;;;;;;;;;;;;;;;23.87;77.84;98247.91;1719673;82;20172;-70
2022/09/11 09:46:22;;;;;;;;;;;;;;;24.31;75.92;98247.77;1720842;82;20162;-68
2022/09/11 09:48:49;;;;;;;;;;;;;;;24.06;75.43;98243.94;1720350;82;20119;-68
2022/09/11 09:51:15;;;;;;;;;;;;;;;23.36;76.00;98237.15;1724140;82;20143;-71
2022/09/11 09:53:54;;;;;;;;;;;;;;;22.70;77.34;98233.49;1676356;82;21161;-66
2022/09/11 09:56:22;;;;;;;;;;;;;;;22.22;79.79;98240.11;1715530;83;20110;-68
2022/09/11 09:59:01;;;;;;;;;;;;;;;21.76;81.64;98246.94;1713382;82;20425;-69
2022/09/11 10:01:47;;;;;;;;;;;;;;;21.51;82.65;98242.86;1716746;82;20112;-70
2022/09/11 10:04:22;;;;;;;;;;;;;;;21.58;83.08;98244.78;1713795;82;20083;-70
2022/09/11 10:06:55;;;;;;;;;;;;;;;21.67;81.76;98240.43;1716788;82;21722;-70
2022/09/11 10:09:27;;;;;;;;;;;;;;;21.66;81.79;98248.30;1715056;83;20099;-70
2022/09/11 10:12:02;;;;;;;;;;;;;;;21.66;81.37;98243.42;1716519;82;20099;-70
2022/09/11 10:14:34;;;;;;;;;;;;;;;21.52;82.41;98241.79;1718117;82;20190;-70
2022/09/11 10:17:02;;;;;;;;;;;;;;;21.61;83.14;98253.71;1685237;82;20140;-69
2022/09/11 10:19:39;;;;;;;;;;;;;;;21.97;83.61;98252.64;1698464;83;21131;-70
2022/09/11 10:22:23;;;;;;;;;;;;;;;22.21;83.25;98244.74;1717427;82;20668;-72
2022/09/11 10:25:18;;;;;;;;;;;;;;;22.69;80.16;98245.95;1710807;83;20113;-74
2022/09/11 10:27:51;;;;;;;;;;;;;;;22.83;80.11;98241.56;1695396;83;20087;-72
2022/09/11 10:30:30;;;;;;;;;;;;;;;22.53;81.43;98240.28;1692293;83;20471;-71
2022/09/11 10:32:57;;;;;;;;;;;;;;;22.45;81.73;98247.63;1702799;83;21172;-72
2022/09/11 10:35:25;;;;;;;;;;;;;;;22.29;81.60;98242.02;1698601;83;20142;-71
2022/09/11 10:37:59;;;;;;;;;;;;;;;22.14;81.49;98246.91;1719826;82;20438;-72
2022/09/11 10:40:26;;;;;;;;;;;;;;;22.11;82.67;98245.55;1717502;82;20140;-72
2022/09/11 10:42:53;;;;;;;;;;;;;;;22.33;82.91;98246.59;1720965;82;20123;-71
2022/09/11 10:45:20;;;;;;;;;;;;;;;22.63;82.46;98243.80;1713969;82;21889;-71
2022/09/11 10:47:50;;;;;;;;;;;;;;;23.08;82.07;98240.05;1716990;82;20079;-71
2022/09/11 10:50:24;;;;;;;;;;;;;;;23.56;80.14;98230.27;1700210;83;20091;-70
2022/09/11 10:53:04;;;;;;;;;;;;;;;23.90;79.25;98236.48;1718353;82;20098;-70
2022/09/11 10:55:37;;;;;;;;;;;;;;;23.97;78.86;98234.78;1699617;83;20209;-70
2022/09/11 10:58:09;;;;;;;;;;;;;;;23.80;78.10;98231.69;1700478;83;21133;-71
2022/09/11 11:00:37;;;;;;;;;;;;;;;23.65;78.95;98236.69;1718894;82;20178;-70
2022/09/11 11:03:15;;;;;;;;;;;;;;;23.51;79.17;98226.23;1714607;82;20507;-72
2022/09/11 11:05:50;;;;;;;;;;;;;;;23.46;79.66;98217.32;1702084;83;20509;-71
2022/09/11 11:08:49;;;;;;;;;;;;;;;23.86;76.31;98217.77;1717408;82;20265;-72
2022/09/11 11:11:42;;;;;;;;;;;;;;;23.28;76.42;98225.00;1716351;82;20758;-72
2022/09/11 11:14:33;;;;;;;;;;;;;;;22.97;77.67;98223.56;1717712;82;20216;-69
2022/09/11 11:17:13;;;;;;;;;;;;;;;22.61;77.24;98220.20;1717067;82;20788;-74
2022/09/11 11:19:55;;;;;;;;;;;;;;;22.37;78.70;98226.55;1718589;82;20198;-72
2022/09/11 11:22:33;;;;;;;;;;;;;;;22.33;79.00;98222.21;1713749;82;20224;-72
2022/09/11 11:25:15;;;;;;;;;;;;;;;22.29;78.55;98217.63;1717294;82;21147;-72
2022/09/11 11:28:13;;;;;;;;;;;;;;;22.28;77.94;98211.94;1721761;82;20140;-73
2022/09/11 11:30:58;;;;;;;;;;;;;;;22.27;80.64;98208.41;1715906;82;20196;-72
2022/09/11 11:33:37;;;;;;;;;;;;;;;22.51;81.00;98206.70;1712382;82;20178;-72
2022/09/11 11:36:22;;;;;;;;;;;;;;;22.66;76.23;98197.70;1714340;83;20199;-72
2022/09/11 11:38:59;;;;;;;;;;;;;;;22.49;78.29;98205.36;1715696;82;21129;-73
2022/09/11 11:41:23;;;;;;;;;;;;;;;22.52;80.31;98200.75;1707516;82;20214;-73
2022/09/11 11:43:49;;;;;;;;;;;;;;;22.67;80.09;98202.87;1697236;83;20244;-73
2022/09/11 11:46:28;;;;;;;;;;;;;;;22.74;79.29;98195.23;1694226;82;20430;-73
2022/09/11 11:48:58;;;;;;;;;;;;;;;22.70;79.67;98203.67;1712994;82;20146;-71
2022/09/11 11:51:26;;;;;;;;;;;;;;;22.60;79.72;98205.59;1713237;82;21178;-72
2022/09/11 11:54:05;;;;;;;;;;;;;;;22.53;80.74;98195.57;1695877;83;20232;-71
2022/09/11 11:56:53;;;;;;;;;;;;;;;22.49;79.37;98196.69;1692632;83;20452;-71
2022/09/11 11:59:30;;;;;;;;;;;;;;;22.33;79.68;98195.66;1696135;83;20196;-72
2022/09/11 12:02:12;;;;;;;;;;;;;;;22.30;80.47;98195.67;1692460;83;20197;-72
2022/09/11 12:04:58;;;;;;;;;;;;;;;22.30;78.83;98185.38;1693406;83;21177;-72
2022/09/11 12:07:28;;;;;;;;;;;;;;;22.25;78.61;98189.45;1698894;83;20134;-71
2022/09/11 12:09:56;;;;;;;;;;;;;;;22.11;78.77;98183.80;1692729;83;20170;-73
2022/09/11 12:12:23;;;;;;;;;;;;;;;22.03;78.69;98179.77;1714964;82;20197;-72
2022/09/11 12:14:55;;;;;;;;;;;;;;;22.02;77.46;98181.41;1711012;82;20341;-72
2022/09/11 12:17:27;;;;;;;;;;;;;;;22.02;77.61;98180.88;1692532;83;21140;-72
2022/09/11 12:20:13;;;;;;;;;;;;;;;22.01;76.81;98172.47;1688033;83;20127;-71
2022/09/11 12:22:42;;;;;;;;;;;;;;;22.05;77.93;98172.20;1696232;83;20128;-69
2022/09/11 12:25:26;;;;;;;;;;;;;;;22.07;78.18;98178.15;1694257;84;20198;-70
2022/09/11 12:28:21;;;;;;;;;;;;;;;22.16;79.11;98172.17;1692724;83;20184;-70
2022/09/11 12:31:01;;;;;;;;;;;;;;;22.20;80.00;98175.39;1696512;83;21185;-71
2022/09/11 12:33:46;;;;;;;;;;;;;;;22.24;80.20;98175.66;1669808;83;20141;-71
2022/09/11 12:36:24;;;;;;;;;;;;;;;22.23;79.76;98172.14;1684611;83;20187;-71
2022/09/11 12:38:52;;;;;;;;;;;;;;;22.25;80.76;98182.69;1687416;83;20129;-69
2022/09/11 12:41:29;;;;;;;;;;;;;;;22.23;81.55;98174.84;1699526;83;20508;-72
2022/09/11 12:43:56;;;;;;;;;;;;;;;22.27;82.18;98179.15;1677098;83;21949;-69
2022/09/11 12:46:26;;;;;;;;;;;;;;;22.21;82.12;98168.91;1697497;83;20094;-71
2022/09/11 12:48:54;;;;;;;;;;;;;;;22.07;82.41;98175.44;1689046;83;20148;-69
2022/09/11 12:51:29;;;;;;;;;;;;;;;21.87;82.85;98170.09;1694110;83;20085;-69
2022/09/11 12:53:59;;;;;;;;;;;;;;;21.71;83.02;98187.94;1695240;82;20111;-69
2022/09/11 12:56:27;;;;;;;;;;;;;;;21.42;84.70;98204.73;1699084;83;21162;-69
2022/09/11 12:58:58;;;;;;;;;;;;;;;21.16;85.36;98205.80;1716956;82;20500;-69
2022/09/11 13:01:29;;;;;;;;;;;;;;;20.91;85.81;98205.70;1700448;83;20453;-69
2022/09/11 13:04:11;;;;;;;;;;;;;;;20.68;85.91;98208.34;1719207;82;20179;-69
2022/09/11 13:06:59;;;;;;;;;;;;;;;20.49;86.65;98205.05;1699176;83;20437;-69
2022/09/11 13:09:28;;;;;;;;;;;;;;;20.36;87.24;98209.05;1699365;83;21134;-69